sensor_id;sensor_type;location;lat;lon;timestamp;P1;durP1;ratioP1;P2;durP2;ratioP2
14681;SDS011;7429;52.498;13.480;2022-08-19T00:00:23;18.95;;;17.17;;
14681;SDS011;7429;52.498;13.480;2022-08-19T00:03:26;22.23;;;20.15;;
14681;SDS011;7429;52.498;13.480;2022-08-19T00:06:29;23.65;;;21.85;;
14681;SDS011;7429;52.498;13.480;2022-08-19T00:09:33;23.58;;;21.63;;
14681;SDS011;7429;52.498;13.480;2022-08-19T00:12:37;23.63;;;21.73;;
14681;SDS011;7429;52.498;13.480;2022-08-19T00:15:48;21.25;;;19.40;;
14681;SDS011;7429;52.498;13.480;2022-08-19T00:18:51;25.20;;;23.05;;
14681;SDS011;7429;52.498;13.480;2022-08-19T00:21:54;24.02;;;21.95;;
14681;SDS011;7429;52.498;13.480;2022-08-19T00:24:57;20.10;;;18.45;;
14681;SDS011;7429;52.498;13.480;2022-08-19T00:28:02;20.88;;;18.55;;
14681;SDS011;7429;52.498;13.480;2022-08-19T00:31:08;21.08;;;19.20;;
14681;SDS011;7429;52.498;13.480;2022-08-19T00:34:11;23.80;;;21.58;;
14681;SDS011;7429;52.498;13.480;2022-08-19T00:37:16;24.30;;;22.23;;
14681;SDS011;7429;52.498;13.480;2022-08-19T00:40:19;20.48;;;18.48;;
14681;SDS011;7429;52.498;13.480;2022-08-19T00:43:23;29.83;;;27.23;;
14681;SDS011;7429;52.498;13.480;2022-08-19T00:46:30;30.27;;;24.05;;
14681;SDS011;7429;52.498;13.480;2022-08-19T00:49:35;26.90;;;24.50;;
14681;SDS011;7429;52.498;13.480;2022-08-19T00:52:43;26.63;;;24.23;;
14681;SDS011;7429;52.498;13.480;2022-08-19T00:55:50;26.58;;;24.00;;
14681;SDS011;7429;52.498;13.480;2022-08-19T00:58:56;22.83;;;20.50;;
14681;SDS011;7429;52.498;13.480;2022-08-19T01:02:02;23.75;;;21.25;;
14681;SDS011;7429;52.498;13.480;2022-08-19T01:05:07;25.80;;;23.48;;
14681;SDS011;7429;52.498;13.480;2022-08-19T01:08:15;28.98;;;26.77;;
14681;SDS011;7429;52.498;13.480;2022-08-19T01:11:20;26.20;;;23.83;;
14681;SDS011;7429;52.498;13.480;2022-08-19T01:14:23;25.80;;;23.50;;
14681;SDS011;7429;52.498;13.480;2022-08-19T01:17:28;23.50;;;21.33;;
14681;SDS011;7429;52.498;13.480;2022-08-19T01:20:32;22.88;;;20.73;;
14681;SDS011;7429;52.498;13.480;2022-08-19T01:23:37;23.48;;;21.27;;
14681;SDS011;7429;52.498;13.480;2022-08-19T01:26:45;22.83;;;20.92;;
14681;SDS011;7429;52.498;13.480;2022-08-19T01:29:50;24.35;;;22.13;;
14681;SDS011;7429;52.498;13.480;2022-08-19T01:32:54;26.58;;;24.17;;
14681;SDS011;7429;52.498;13.480;2022-08-19T01:36:03;23.75;;;20.90;;
14681;SDS011;7429;52.498;13.480;2022-08-19T01:39:11;25.23;;;22.73;;
14681;SDS011;7429;52.498;13.480;2022-08-19T01:42:16;25.40;;;20.50;;
14681;SDS011;7429;52.498;13.480;2022-08-19T01:45:31;26.70;;;23.60;;
14681;SDS011;7429;52.498;13.480;2022-08-19T01:48:36;28.25;;;25.80;;
14681;SDS011;7429;52.498;13.480;2022-08-19T01:51:41;24.63;;;22.33;;
14681;SDS011;7429;52.498;13.480;2022-08-19T01:54:46;26.05;;;23.38;;
14681;SDS011;7429;52.498;13.480;2022-08-19T01:57:50;31.92;;;28.83;;
14681;SDS011;7429;52.498;13.480;2022-08-19T02:00:56;28.13;;;25.33;;
14681;SDS011;7429;52.498;13.480;2022-08-19T02:04:01;25.73;;;23.05;;
14681;SDS011;7429;52.498;13.480;2022-08-19T02:07:04;25.77;;;23.40;;
14681;SDS011;7429;52.498;13.480;2022-08-19T02:10:13;23.88;;;21.17;;
14681;SDS011;7429;52.498;13.480;2022-08-19T02:13:20;26.50;;;23.00;;
14681;SDS011;7429;52.498;13.480;2022-08-19T02:16:26;26.98;;;24.45;;
14681;SDS011;7429;52.498;13.480;2022-08-19T02:19:31;27.73;;;25.05;;
14681;SDS011;7429;52.498;13.480;2022-08-19T02:22:34;27.17;;;24.38;;
14681;SDS011;7429;52.498;13.480;2022-08-19T02:25:39;26.45;;;23.73;;
14681;SDS011;7429;52.498;13.480;2022-08-19T02:28:43;30.77;;;28.00;;
14681;SDS011;7429;52.498;13.480;2022-08-19T02:31:47;24.83;;;22.38;;
14681;SDS011;7429;52.498;13.480;2022-08-19T02:34:50;26.48;;;23.35;;
14681;SDS011;7429;52.498;13.480;2022-08-19T02:37:53;23.05;;;20.85;;
14681;SDS011;7429;52.498;13.480;2022-08-19T02:41:16;23.67;;;21.48;;
14681;SDS011;7429;52.498;13.480;2022-08-19T02:44:24;23.75;;;21.50;;
14681;SDS011;7429;52.498;13.480;2022-08-19T02:47:32;26.55;;;24.00;;
14681;SDS011;7429;52.498;13.480;2022-08-19T02:50:37;27.42;;;24.92;;
14681;SDS011;7429;52.498;13.480;2022-08-19T02:53:52;24.33;;;22.13;;
14681;SDS011;7429;52.498;13.480;2022-08-19T02:56:57;25.67;;;23.35;;
14681;SDS011;7429;52.498;13.480;2022-08-19T03:00:03;24.27;;;21.98;;
14681;SDS011;7429;52.498;13.480;2022-08-19T03:03:09;26.80;;;24.40;;
14681;SDS011;7429;52.498;13.480;2022-08-19T03:06:14;30.70;;;27.48;;
14681;SDS011;7429;52.498;13.480;2022-08-19T03:09:19;26.17;;;23.80;;
14681;SDS011;7429;52.498;13.480;2022-08-19T03:12:23;26.17;;;23.45;;
14681;SDS011;7429;52.498;13.480;2022-08-19T03:15:27;25.80;;;23.40;;
14681;SDS011;7429;52.498;13.480;2022-08-19T03:18:30;26.38;;;23.92;;
14681;SDS011;7429;52.498;13.480;2022-08-19T03:21:33;28.13;;;25.52;;
14681;SDS011;7429;52.498;13.480;2022-08-19T03:24:37;25.42;;;22.85;;
14681;SDS011;7429;52.498;13.480;2022-08-19T03:27:42;25.67;;;23.20;;
14681;SDS011;7429;52.498;13.480;2022-08-19T03:30:57;23.05;;;20.83;;
14681;SDS011;7429;52.498;13.480;2022-08-19T03:34:02;21.58;;;19.42;;
14681;SDS011;7429;52.498;13.480;2022-08-19T03:37:09;24.88;;;22.40;;
14681;SDS011;7429;52.498;13.480;2022-08-19T03:40:14;25.67;;;23.10;;
14681;SDS011;7429;52.498;13.480;2022-08-19T03:43:18;24.70;;;22.08;;
14681;SDS011;7429;52.498;13.480;2022-08-19T03:46:23;25.08;;;22.88;;
14681;SDS011;7429;52.498;13.480;2022-08-19T03:49:30;27.15;;;24.77;;
14681;SDS011;7429;52.498;13.480;2022-08-19T03:52:37;28.08;;;25.30;;
14681;SDS011;7429;52.498;13.480;2022-08-19T03:55:47;27.08;;;24.70;;
14681;SDS011;7429;52.498;13.480;2022-08-19T03:58:51;28.40;;;26.00;;
14681;SDS011;7429;52.498;13.480;2022-08-19T04:01:55;28.55;;;26.05;;
14681;SDS011;7429;52.498;13.480;2022-08-19T04:05:01;26.15;;;23.65;;
14681;SDS011;7429;52.498;13.480;2022-08-19T04:08:04;30.52;;;27.75;;
14681;SDS011;7429;52.498;13.480;2022-08-19T04:11:14;30.40;;;27.65;;
14681;SDS011;7429;52.498;13.480;2022-08-19T04:14:21;27.10;;;24.52;;
14681;SDS011;7429;52.498;13.480;2022-08-19T04:17:26;26.67;;;24.05;;
14681;SDS011;7429;52.498;13.480;2022-08-19T04:20:30;22.55;;;20.48;;
14681;SDS011;7429;52.498;13.480;2022-08-19T04:23:33;24.58;;;22.35;;
14681;SDS011;7429;52.498;13.480;2022-08-19T04:26:45;24.85;;;22.65;;
14681;SDS011;7429;52.498;13.480;2022-08-19T04:29:50;24.40;;;22.23;;
14681;SDS011;7429;52.498;13.480;2022-08-19T04:32:56;25.92;;;23.48;;
14681;SDS011;7429;52.498;13.480;2022-08-19T04:35:59;26.70;;;24.35;;
14681;SDS011;7429;52.498;13.480;2022-08-19T04:39:03;23.75;;;21.55;;
14681;SDS011;7429;52.498;13.480;2022-08-19T04:42:09;24.88;;;22.42;;
14681;SDS011;7429;52.498;13.480;2022-08-19T04:45:32;25.58;;;23.20;;
14681;SDS011;7429;52.498;13.480;2022-08-19T04:48:45;25.42;;;22.98;;
14681;SDS011;7429;52.498;13.480;2022-08-19T04:51:50;25.88;;;23.48;;
14681;SDS011;7429;52.498;13.480;2022-08-19T04:54:55;26.15;;;23.80;;
14681;SDS011;7429;52.498;13.480;2022-08-19T04:57:58;25.08;;;22.50;;
14681;SDS011;7429;52.498;13.480;2022-08-19T05:01:02;26.20;;;23.52;;
14681;SDS011;7429;52.498;13.480;2022-08-19T05:04:07;23.80;;;21.60;;
14681;SDS011;7429;52.498;13.480;2022-08-19T05:07:10;23.08;;;20.80;;
14681;SDS011;7429;52.498;13.480;2022-08-19T05:10:14;24.92;;;22.45;;
14681;SDS011;7429;52.498;13.480;2022-08-19T05:13:17;26.92;;;24.20;;
14681;SDS011;7429;52.498;13.480;2022-08-19T05:16:23;25.50;;;23.23;;
14681;SDS011;7429;52.498;13.480;2022-08-19T05:19:28;27.73;;;25.17;;
14681;SDS011;7429;52.498;13.480;2022-08-19T05:22:48;24.65;;;22.30;;
14681;SDS011;7429;52.498;13.480;2022-08-19T05:25:51;24.10;;;21.88;;
14681;SDS011;7429;52.498;13.480;2022-08-19T05:28:55;26.02;;;23.38;;
14681;SDS011;7429;52.498;13.480;2022-08-19T05:31:59;23.45;;;21.35;;
14681;SDS011;7429;52.498;13.480;2022-08-19T05:35:04;22.70;;;20.67;;
14681;SDS011;7429;52.498;13.480;2022-08-19T05:38:08;25.88;;;23.55;;
14681;SDS011;7429;52.498;13.480;2022-08-19T05:41:12;23.35;;;21.15;;
14681;SDS011;7429;52.498;13.480;2022-08-19T05:44:17;25.25;;;23.05;;
14681;SDS011;7429;52.498;13.480;2022-08-19T05:47:24;26.13;;;23.58;;
14681;SDS011;7429;52.498;13.480;2022-08-19T05:50:27;23.65;;;21.50;;
14681;SDS011;7429;52.498;13.480;2022-08-19T05:53:31;25.08;;;22.63;;
14681;SDS011;7429;52.498;13.480;2022-08-19T05:56:37;23.40;;;21.30;;
14681;SDS011;7429;52.498;13.480;2022-08-19T05:59:41;23.92;;;21.73;;
14681;SDS011;7429;52.498;13.480;2022-08-19T06:02:48;27.38;;;24.75;;
14681;SDS011;7429;52.498;13.480;2022-08-19T06:05:52;24.95;;;22.40;;
14681;SDS011;7429;52.498;13.480;2022-08-19T06:08:56;26.90;;;24.60;;
14681;SDS011;7429;52.498;13.480;2022-08-19T06:11:59;27.17;;;24.88;;
14681;SDS011;7429;52.498;13.480;2022-08-19T06:15:05;27.00;;;24.45;;
14681;SDS011;7429;52.498;13.480;2022-08-19T06:18:13;26.67;;;24.38;;
14681;SDS011;7429;52.498;13.480;2022-08-19T06:21:17;24.70;;;22.55;;
14681;SDS011;7429;52.498;13.480;2022-08-19T06:24:22;26.35;;;24.05;;
14681;SDS011;7429;52.498;13.480;2022-08-19T06:27:27;26.67;;;24.00;;
14681;SDS011;7429;52.498;13.480;2022-08-19T06:30:32;27.02;;;24.63;;
14681;SDS011;7429;52.498;13.480;2022-08-19T06:33:36;28.85;;;26.35;;
14681;SDS011;7429;52.498;13.480;2022-08-19T06:36:43;25.40;;;22.98;;
14681;SDS011;7429;52.498;13.480;2022-08-19T06:39:48;25.25;;;22.83;;
14681;SDS011;7429;52.498;13.480;2022-08-19T06:42:53;24.88;;;22.67;;
14681;SDS011;7429;52.498;13.480;2022-08-19T06:45:57;28.70;;;26.02;;
14681;SDS011;7429;52.498;13.480;2022-08-19T06:49:03;27.92;;;25.40;;
14681;SDS011;7429;52.498;13.480;2022-08-19T06:52:11;25.50;;;23.20;;
14681;SDS011;7429;52.498;13.480;2022-08-19T06:55:15;27.35;;;24.73;;
14681;SDS011;7429;52.498;13.480;2022-08-19T06:58:19;29.85;;;27.02;;
14681;SDS011;7429;52.498;13.480;2022-08-19T07:01:22;29.77;;;27.00;;
14681;SDS011;7429;52.498;13.480;2022-08-19T07:04:28;28.05;;;25.30;;
14681;SDS011;7429;52.498;13.480;2022-08-19T07:07:34;31.58;;;28.63;;
14681;SDS011;7429;52.498;13.480;2022-08-19T07:10:37;32.20;;;29.27;;
14681;SDS011;7429;52.498;13.480;2022-08-19T07:13:45;28.30;;;25.75;;
14681;SDS011;7429;52.498;13.480;2022-08-19T07:16:55;27.70;;;25.27;;
14681;SDS011;7429;52.498;13.480;2022-08-19T07:20:00;32.35;;;29.63;;
14681;SDS011;7429;52.498;13.480;2022-08-19T07:23:09;30.15;;;26.13;;
14681;SDS011;7429;52.498;13.480;2022-08-19T07:26:19;27.25;;;24.70;;
14681;SDS011;7429;52.498;13.480;2022-08-19T07:29:28;28.58;;;25.77;;
14681;SDS011;7429;52.498;13.480;2022-08-19T07:32:35;28.80;;;26.17;;
14681;SDS011;7429;52.498;13.480;2022-08-19T07:35:40;28.55;;;26.05;;
14681;SDS011;7429;52.498;13.480;2022-08-19T07:38:44;34.17;;;31.38;;
14681;SDS011;7429;52.498;13.480;2022-08-19T07:41:50;27.45;;;24.67;;
14681;SDS011;7429;52.498;13.480;2022-08-19T07:44:53;28.02;;;25.30;;
14681;SDS011;7429;52.498;13.480;2022-08-19T07:47:56;30.80;;;28.10;;
14681;SDS011;7429;52.498;13.480;2022-08-19T07:51:03;27.55;;;25.00;;
14681;SDS011;7429;52.498;13.480;2022-08-19T07:54:09;33.35;;;30.45;;
14681;SDS011;7429;52.498;13.480;2022-08-19T07:57:12;28.35;;;25.77;;
14681;SDS011;7429;52.498;13.480;2022-08-19T08:00:16;27.30;;;24.80;;
14681;SDS011;7429;52.498;13.480;2022-08-19T08:03:25;28.23;;;25.40;;
14681;SDS011;7429;52.498;13.480;2022-08-19T08:06:44;29.88;;;26.85;;
14681;SDS011;7429;52.498;13.480;2022-08-19T08:10:05;32.85;;;30.00;;
14681;SDS011;7429;52.498;13.480;2022-08-19T08:13:21;36.22;;;33.15;;
14681;SDS011;7429;52.498;13.480;2022-08-19T08:16:24;33.95;;;31.02;;
14681;SDS011;7429;52.498;13.480;2022-08-19T08:19:32;29.08;;;26.33;;
14681;SDS011;7429;52.498;13.480;2022-08-19T08:22:37;34.15;;;30.98;;
14681;SDS011;7429;52.498;13.480;2022-08-19T08:26:02;28.30;;;25.70;;
14681;SDS011;7429;52.498;13.480;2022-08-19T08:29:06;38.65;;;35.60;;
14681;SDS011;7429;52.498;13.480;2022-08-19T08:32:13;30.58;;;27.83;;
14681;SDS011;7429;52.498;13.480;2022-08-19T08:35:18;31.70;;;29.02;;
14681;SDS011;7429;52.498;13.480;2022-08-19T08:38:24;26.83;;;24.20;;
14681;SDS011;7429;52.498;13.480;2022-08-19T08:41:37;26.85;;;24.30;;
14681;SDS011;7429;52.498;13.480;2022-08-19T08:44:50;29.33;;;26.40;;
14681;SDS011;7429;52.498;13.480;2022-08-19T08:48:02;27.05;;;24.48;;
14681;SDS011;7429;52.498;13.480;2022-08-19T08:51:25;28.70;;;25.80;;
14681;SDS011;7429;52.498;13.480;2022-08-19T08:54:37;29.48;;;26.48;;
14681;SDS011;7429;52.498;13.480;2022-08-19T08:57:56;29.98;;;27.27;;
14681;SDS011;7429;52.498;13.480;2022-08-19T09:01:04;25.95;;;23.25;;
14681;SDS011;7429;52.498;13.480;2022-08-19T09:04:07;28.35;;;25.35;;
14681;SDS011;7429;52.498;13.480;2022-08-19T09:07:14;28.80;;;25.92;;
14681;SDS011;7429;52.498;13.480;2022-08-19T09:10:38;29.13;;;26.23;;
14681;SDS011;7429;52.498;13.480;2022-08-19T09:13:49;29.98;;;27.20;;
14681;SDS011;7429;52.498;13.480;2022-08-19T09:17:40;29.60;;;26.55;;
14681;SDS011;7429;52.498;13.480;2022-08-19T09:20:43;27.95;;;25.30;;
14681;SDS011;7429;52.498;13.480;2022-08-19T09:23:48;29.67;;;26.77;;
14681;SDS011;7429;52.498;13.480;2022-08-19T09:26:53;32.40;;;29.48;;
14681;SDS011;7429;52.498;13.480;2022-08-19T09:29:58;33.10;;;30.15;;
14681;SDS011;7429;52.498;13.480;2022-08-19T09:33:01;30.63;;;27.77;;
14681;SDS011;7429;52.498;13.480;2022-08-19T09:36:06;30.88;;;28.08;;
14681;SDS011;7429;52.498;13.480;2022-08-19T09:39:21;27.80;;;25.10;;
14681;SDS011;7429;52.498;13.480;2022-08-19T09:42:37;29.10;;;26.38;;
14681;SDS011;7429;52.498;13.480;2022-08-19T09:45:52;30.55;;;27.92;;
14681;SDS011;7429;52.498;13.480;2022-08-19T09:48:56;28.88;;;26.17;;
14681;SDS011;7429;52.498;13.480;2022-08-19T09:52:08;27.45;;;24.92;;
14681;SDS011;7429;52.498;13.480;2022-08-19T09:55:14;28.38;;;25.83;;
14681;SDS011;7429;52.498;13.480;2022-08-19T09:58:19;26.02;;;23.35;;
14681;SDS011;7429;52.498;13.480;2022-08-19T10:01:27;29.08;;;26.38;;
14681;SDS011;7429;52.498;13.480;2022-08-19T10:04:33;26.70;;;24.13;;
14681;SDS011;7429;52.498;13.480;2022-08-19T10:07:53;25.55;;;23.30;;
14681;SDS011;7429;52.498;13.480;2022-08-19T10:10:57;26.98;;;24.27;;
14681;SDS011;7429;52.498;13.480;2022-08-19T10:14:23;25.35;;;22.92;;
14681;SDS011;7429;52.498;13.480;2022-08-19T10:17:27;26.55;;;24.02;;
14681;SDS011;7429;52.498;13.480;2022-08-19T10:20:33;27.77;;;25.27;;
14681;SDS011;7429;52.498;13.480;2022-08-19T10:23:39;29.42;;;26.83;;
14681;SDS011;7429;52.498;13.480;2022-08-19T10:26:46;25.98;;;23.42;;
14681;SDS011;7429;52.498;13.480;2022-08-19T10:30:01;26.30;;;23.92;;
14681;SDS011;7429;52.498;13.480;2022-08-19T10:33:10;24.33;;;22.15;;
14681;SDS011;7429;52.498;13.480;2022-08-19T10:36:16;26.13;;;23.73;;
14681;SDS011;7429;52.498;13.480;2022-08-19T10:39:21;23.05;;;20.80;;
14681;SDS011;7429;52.498;13.480;2022-08-19T10:42:30;24.08;;;21.92;;
14681;SDS011;7429;52.498;13.480;2022-08-19T10:45:35;26.83;;;24.30;;
14681;SDS011;7429;52.498;13.480;2022-08-19T10:48:53;25.35;;;23.27;;
14681;SDS011;7429;52.498;13.480;2022-08-19T10:51:56;24.20;;;21.83;;
14681;SDS011;7429;52.498;13.480;2022-08-19T10:55:21;27.00;;;24.80;;
14681;SDS011;7429;52.498;13.480;2022-08-19T10:58:43;23.65;;;21.35;;
14681;SDS011;7429;52.498;13.480;2022-08-19T11:01:48;24.90;;;21.98;;
14681;SDS011;7429;52.498;13.480;2022-08-19T11:04:56;23.70;;;21.45;;
14681;SDS011;7429;52.498;13.480;2022-08-19T11:08:05;24.48;;;20.30;;
14681;SDS011;7429;52.498;13.480;2022-08-19T11:11:23;22.85;;;20.77;;
14681;SDS011;7429;52.498;13.480;2022-08-19T11:14:26;26.58;;;24.08;;
14681;SDS011;7429;52.498;13.480;2022-08-19T11:17:36;24.25;;;22.08;;
14681;SDS011;7429;52.498;13.480;2022-08-19T11:20:41;25.80;;;23.08;;
14681;SDS011;7429;52.498;13.480;2022-08-19T11:23:45;25.23;;;22.92;;
14681;SDS011;7429;52.498;13.480;2022-08-19T11:26:50;24.33;;;22.05;;
14681;SDS011;7429;52.498;13.480;2022-08-19T11:30:00;25.05;;;21.50;;
14681;SDS011;7429;52.498;13.480;2022-08-19T11:33:08;25.30;;;22.85;;
14681;SDS011;7429;52.498;13.480;2022-08-19T11:36:12;24.42;;;22.13;;
14681;SDS011;7429;52.498;13.480;2022-08-19T11:39:16;21.40;;;19.40;;
14681;SDS011;7429;52.498;13.480;2022-08-19T11:42:22;23.83;;;21.65;;
14681;SDS011;7429;52.498;13.480;2022-08-19T11:45:43;23.48;;;21.40;;
14681;SDS011;7429;52.498;13.480;2022-08-19T11:48:48;22.98;;;20.77;;
14681;SDS011;7429;52.498;13.480;2022-08-19T11:51:52;25.23;;;22.83;;
14681;SDS011;7429;52.498;13.480;2022-08-19T11:54:55;23.67;;;21.40;;
14681;SDS011;7429;52.498;13.480;2022-08-19T11:57:58;25.25;;;22.63;;
14681;SDS011;7429;52.498;13.480;2022-08-19T12:01:04;23.58;;;21.65;;
14681;SDS011;7429;52.498;13.480;2022-08-19T12:04:10;19.83;;;18.13;;
14681;SDS011;7429;52.498;13.480;2022-08-19T12:07:13;21.17;;;19.25;;
14681;SDS011;7429;52.498;13.480;2022-08-19T12:10:16;20.88;;;19.02;;
14681;SDS011;7429;52.498;13.480;2022-08-19T12:13:23;23.10;;;21.10;;
14681;SDS011;7429;52.498;13.480;2022-08-19T12:16:27;19.85;;;17.92;;
14681;SDS011;7429;52.498;13.480;2022-08-19T12:19:35;18.10;;;16.17;;
14681;SDS011;7429;52.498;13.480;2022-08-19T12:22:41;25.35;;;23.30;;
14681;SDS011;7429;52.498;13.480;2022-08-19T12:25:45;20.52;;;18.73;;
14681;SDS011;7429;52.498;13.480;2022-08-19T12:28:51;21.55;;;19.73;;
14681;SDS011;7429;52.498;13.480;2022-08-19T12:31:55;17.50;;;16.08;;
14681;SDS011;7429;52.498;13.480;2022-08-19T12:35:04;17.23;;;15.73;;
14681;SDS011;7429;52.498;13.480;2022-08-19T12:38:11;17.02;;;15.43;;
14681;SDS011;7429;52.498;13.480;2022-08-19T12:41:16;17.08;;;15.43;;
14681;SDS011;7429;52.498;13.480;2022-08-19T12:44:20;19.13;;;17.23;;
14681;SDS011;7429;52.498;13.480;2022-08-19T12:47:32;18.13;;;16.63;;
14681;SDS011;7429;52.498;13.480;2022-08-19T12:50:40;17.33;;;15.80;;
14681;SDS011;7429;52.498;13.480;2022-08-19T12:53:44;17.30;;;15.63;;
14681;SDS011;7429;52.498;13.480;2022-08-19T12:56:48;16.48;;;15.05;;
14681;SDS011;7429;52.498;13.480;2022-08-19T12:59:51;16.50;;;14.90;;
14681;SDS011;7429;52.498;13.480;2022-08-19T13:02:55;16.13;;;14.55;;
14681;SDS011;7429;52.498;13.480;2022-08-19T13:05:59;17.88;;;16.08;;
14681;SDS011;7429;52.498;13.480;2022-08-19T13:09:03;15.55;;;14.23;;
14681;SDS011;7429;52.498;13.480;2022-08-19T13:12:07;15.98;;;14.20;;
14681;SDS011;7429;52.498;13.480;2022-08-19T13:15:14;16.92;;;15.48;;
14681;SDS011;7429;52.498;13.480;2022-08-19T13:18:24;18.88;;;17.40;;
14681;SDS011;7429;52.498;13.480;2022-08-19T13:21:28;17.35;;;15.85;;
14681;SDS011;7429;52.498;13.480;2022-08-19T13:24:32;16.60;;;15.00;;
14681;SDS011;7429;52.498;13.480;2022-08-19T13:27:35;16.75;;;14.85;;
14681;SDS011;7429;52.498;13.480;2022-08-19T13:30:39;16.75;;;15.13;;
14681;SDS011;7429;52.498;13.480;2022-08-19T13:33:59;16.35;;;14.85;;
14681;SDS011;7429;52.498;13.480;2022-08-19T13:37:04;17.75;;;15.82;;
14681;SDS011;7429;52.498;13.480;2022-08-19T13:40:10;19.58;;;17.80;;
14681;SDS011;7429;52.498;13.480;2022-08-19T13:43:17;17.92;;;16.33;;
14681;SDS011;7429;52.498;13.480;2022-08-19T13:46:23;17.65;;;16.08;;
14681;SDS011;7429;52.498;13.480;2022-08-19T13:49:28;18.48;;;16.60;;
14681;SDS011;7429;52.498;13.480;2022-08-19T13:52:33;17.67;;;16.17;;
14681;SDS011;7429;52.498;13.480;2022-08-19T13:55:36;18.60;;;16.65;;
14681;SDS011;7429;52.498;13.480;2022-08-19T13:58:40;18.15;;;16.40;;
14681;SDS011;7429;52.498;13.480;2022-08-19T14:01:44;17.10;;;15.50;;
14681;SDS011;7429;52.498;13.480;2022-08-19T14:04:47;17.85;;;16.05;;
14681;SDS011;7429;52.498;13.480;2022-08-19T14:07:51;18.55;;;16.88;;
14681;SDS011;7429;52.498;13.480;2022-08-19T14:10:55;16.80;;;15.30;;
14681;SDS011;7429;52.498;13.480;2022-08-19T14:13:58;20.02;;;18.00;;
14681;SDS011;7429;52.498;13.480;2022-08-19T14:17:01;17.52;;;15.93;;
14681;SDS011;7429;52.498;13.480;2022-08-19T14:20:05;19.50;;;17.65;;
14681;SDS011;7429;52.498;13.480;2022-08-19T14:23:19;19.92;;;18.05;;
14681;SDS011;7429;52.498;13.480;2022-08-19T14:26:23;17.75;;;16.00;;
14681;SDS011;7429;52.498;13.480;2022-08-19T14:29:26;18.02;;;16.35;;
14681;SDS011;7429;52.498;13.480;2022-08-19T14:32:30;18.05;;;16.45;;
14681;SDS011;7429;52.498;13.480;2022-08-19T14:35:33;18.38;;;16.55;;
14681;SDS011;7429;52.498;13.480;2022-08-19T14:38:38;17.88;;;16.27;;
14681;SDS011;7429;52.498;13.480;2022-08-19T14:41:41;18.67;;;16.88;;
14681;SDS011;7429;52.498;13.480;2022-08-19T14:44:44;17.83;;;16.20;;
14681;SDS011;7429;52.498;13.480;2022-08-19T14:47:47;16.75;;;15.10;;
14681;SDS011;7429;52.498;13.480;2022-08-19T14:50:51;16.83;;;15.13;;
14681;SDS011;7429;52.498;13.480;2022-08-19T14:53:56;16.40;;;14.98;;
14681;SDS011;7429;52.498;13.480;2022-08-19T14:56:59;17.80;;;16.00;;
14681;SDS011;7429;52.498;13.480;2022-08-19T15:00:02;17.30;;;15.63;;
14681;SDS011;7429;52.498;13.480;2022-08-19T15:03:07;18.05;;;16.52;;
14681;SDS011;7429;52.498;13.480;2022-08-19T15:06:10;15.80;;;14.18;;
14681;SDS011;7429;52.498;13.480;2022-08-19T15:09:14;14.52;;;13.27;;
14681;SDS011;7429;52.498;13.480;2022-08-19T15:12:17;15.50;;;13.88;;
14681;SDS011;7429;52.498;13.480;2022-08-19T15:15:22;16.75;;;15.10;;
14681;SDS011;7429;52.498;13.480;2022-08-19T15:18:25;17.48;;;15.93;;
14681;SDS011;7429;52.498;13.480;2022-08-19T15:21:28;16.42;;;14.98;;
14681;SDS011;7429;52.498;13.480;2022-08-19T15:24:35;15.85;;;14.45;;
14681;SDS011;7429;52.498;13.480;2022-08-19T15:27:48;15.85;;;14.38;;
14681;SDS011;7429;52.498;13.480;2022-08-19T15:30:52;15.63;;;14.00;;
14681;SDS011;7429;52.498;13.480;2022-08-19T15:33:56;15.85;;;14.55;;
14681;SDS011;7429;52.498;13.480;2022-08-19T15:36:59;13.63;;;12.35;;
14681;SDS011;7429;52.498;13.480;2022-08-19T15:40:06;14.70;;;13.48;;
14681;SDS011;7429;52.498;13.480;2022-08-19T15:43:11;15.57;;;14.00;;
14681;SDS011;7429;52.498;13.480;2022-08-19T15:46:15;14.38;;;12.98;;
14681;SDS011;7429;52.498;13.480;2022-08-19T15:49:20;14.80;;;13.50;;
14681;SDS011;7429;52.498;13.480;2022-08-19T15:52:23;14.95;;;13.43;;
14681;SDS011;7429;52.498;13.480;2022-08-19T15:55:30;15.30;;;13.90;;
14681;SDS011;7429;52.498;13.480;2022-08-19T15:58:36;14.38;;;13.18;;
14681;SDS011;7429;52.498;13.480;2022-08-19T16:01:57;13.88;;;12.68;;
14681;SDS011;7429;52.498;13.480;2022-08-19T16:05:18;15.18;;;13.77;;
14681;SDS011;7429;52.498;13.480;2022-08-19T16:08:41;14.68;;;13.20;;
14681;SDS011;7429;52.498;13.480;2022-08-19T16:11:51;17.75;;;13.38;;
14681;SDS011;7429;52.498;13.480;2022-08-19T16:14:57;14.10;;;12.70;;
14681;SDS011;7429;52.498;13.480;2022-08-19T16:18:00;13.65;;;12.35;;
14681;SDS011;7429;52.498;13.480;2022-08-19T16:21:04;13.63;;;12.43;;
14681;SDS011;7429;52.498;13.480;2022-08-19T16:24:09;14.73;;;13.48;;
14681;SDS011;7429;52.498;13.480;2022-08-19T16:27:15;15.13;;;13.63;;
14681;SDS011;7429;52.498;13.480;2022-08-19T16:30:19;15.48;;;13.93;;
14681;SDS011;7429;52.498;13.480;2022-08-19T16:33:22;15.02;;;13.80;;
14681;SDS011;7429;52.498;13.480;2022-08-19T16:36:25;16.75;;;15.25;;
14681;SDS011;7429;52.498;13.480;2022-08-19T16:39:28;16.52;;;15.10;;
14681;SDS011;7429;52.498;13.480;2022-08-19T16:42:33;17.80;;;16.15;;
14681;SDS011;7429;52.498;13.480;2022-08-19T16:45:37;15.00;;;13.65;;
14681;SDS011;7429;52.498;13.480;2022-08-19T16:48:44;17.08;;;15.60;;
14681;SDS011;7429;52.498;13.480;2022-08-19T16:51:47;18.55;;;16.65;;
14681;SDS011;7429;52.498;13.480;2022-08-19T16:54:50;17.52;;;16.02;;
14681;SDS011;7429;52.498;13.480;2022-08-19T16:57:55;17.77;;;16.13;;
14681;SDS011;7429;52.498;13.480;2022-08-19T17:00:59;17.33;;;15.80;;
14681;SDS011;7429;52.498;13.480;2022-08-19T17:04:04;17.10;;;15.38;;
14681;SDS011;7429;52.498;13.480;2022-08-19T17:07:08;19.13;;;17.42;;
14681;SDS011;7429;52.498;13.480;2022-08-19T17:10:11;18.08;;;16.30;;
14681;SDS011;7429;52.498;13.480;2022-08-19T17:13:16;18.00;;;16.38;;
14681;SDS011;7429;52.498;13.480;2022-08-19T17:16:20;19.08;;;17.23;;
14681;SDS011;7429;52.498;13.480;2022-08-19T17:19:26;17.17;;;15.68;;
14681;SDS011;7429;52.498;13.480;2022-08-19T17:22:29;18.40;;;16.90;;
14681;SDS011;7429;52.498;13.480;2022-08-19T17:25:32;18.92;;;17.30;;
14681;SDS011;7429;52.498;13.480;2022-08-19T17:28:38;17.77;;;16.17;;
14681;SDS011;7429;52.498;13.480;2022-08-19T17:31:43;17.35;;;15.85;;
14681;SDS011;7429;52.498;13.480;2022-08-19T17:34:47;16.67;;;15.15;;
14681;SDS011;7429;52.498;13.480;2022-08-19T17:37:50;15.55;;;14.30;;
14681;SDS011;7429;52.498;13.480;2022-08-19T17:40:53;17.27;;;15.75;;
14681;SDS011;7429;52.498;13.480;2022-08-19T17:44:03;19.45;;;17.75;;
14681;SDS011;7429;52.498;13.480;2022-08-19T17:47:07;18.15;;;16.45;;
14681;SDS011;7429;52.498;13.480;2022-08-19T17:50:11;23.92;;;21.80;;
14681;SDS011;7429;52.498;13.480;2022-08-19T17:53:14;21.58;;;19.98;;
14681;SDS011;7429;52.498;13.480;2022-08-19T17:56:18;16.95;;;15.43;;
14681;SDS011;7429;52.498;13.480;2022-08-19T17:59:25;16.27;;;14.95;;
14681;SDS011;7429;52.498;13.480;2022-08-19T18:02:30;16.88;;;15.43;;
14681;SDS011;7429;52.498;13.480;2022-08-19T18:05:41;17.50;;;15.82;;
14681;SDS011;7429;52.498;13.480;2022-08-19T18:08:45;15.18;;;13.88;;